createdAt,value
2018-06-11T00:00:48.895Z,1005.39
2018-06-11T00:02:48.946Z,1005.39
2018-06-11T00:03:48.974Z,1005.42
2018-06-11T00:04:48.995Z,1005.38
2018-06-11T00:05:49.024Z,1005.39
2018-06-11T00:06:49.045Z,1005.44
2018-06-11T00:07:49.072Z,1005.41
2018-06-11T00:08:49.101Z,1005.42
2018-06-11T00:09:49.118Z,1005.44
2018-06-11T00:10:49.148Z,1005.47
2018-06-11T00:11:49.172Z,1005.5
2018-06-11T00:12:49.197Z,1005.5
2018-06-11T00:13:49.216Z,1005.48
2018-06-11T00:14:49.247Z,1005.52
2018-06-11T00:15:49.268Z,1005.52
2018-06-11T00:17:49.329Z,1005.52
2018-06-11T00:18:49.344Z,1005.51
2018-06-11T00:19:49.367Z,1005.52
2018-06-11T00:20:49.395Z,1005.52
2018-06-11T00:21:49.420Z,1005.54
2018-06-11T00:22:49.444Z,1005.55
2018-06-11T00:23:49.466Z,1005.55
2018-06-11T00:24:49.499Z,1005.57
2018-06-11T00:25:49.515Z,1005.58
2018-06-11T00:26:49.547Z,1005.58
2018-06-11T00:27:49.564Z,1005.62
2018-06-11T00:28:49.594Z,1005.61
2018-06-11T00:29:49.619Z,1005.66
2018-06-11T00:30:49.638Z,1005.67
2018-06-11T00:31:49.667Z,1005.69
2018-06-11T00:32:49.692Z,1005.73
2018-06-11T00:33:49.716Z,1005.76
2018-06-11T00:34:49.736Z,1005.73
2018-06-11T00:35:49.766Z,1005.71
2018-06-11T00:36:49.790Z,1005.72
2018-06-11T00:37:49.815Z,1005.7
2018-06-11T00:38:49.836Z,1005.7
2018-06-11T00:39:49.863Z,1005.69
2018-06-11T00:40:49.889Z,1005.74
2018-06-11T00:41:49.910Z,1005.7
2018-06-11T00:42:49.942Z,1005.69
2018-06-11T00:43:49.963Z,1005.69
2018-06-11T00:44:49.983Z,1005.7
2018-06-11T00:45:50.012Z,1005.69
2018-06-11T00:46:50.037Z,1005.73
2018-06-11T00:47:50.057Z,1005.68
2018-06-11T00:49:50.105Z,1005.7
2018-06-11T00:50:50.157Z,1005.74
2018-06-11T00:51:50.154Z,1005.77
2018-06-11T00:52:50.185Z,1005.82
2018-06-11T00:53:50.209Z,1005.86
2018-06-11T00:54:50.230Z,1005.89
2018-06-11T00:55:50.253Z,1005.88
2018-06-11T00:56:50.279Z,1005.95
2018-06-11T00:57:50.308Z,1005.9
2018-06-11T00:58:50.326Z,1005.99
2018-06-11T00:59:50.357Z,1005.96
2018-06-11T01:00:50.381Z,1005.98
2018-06-11T01:01:50.405Z,1005.95
2018-06-11T01:02:50.431Z,1005.94
2018-06-11T01:03:50.452Z,1005.93
2018-06-11T01:05:50.506Z,1005.89
2018-06-11T01:06:50.529Z,1005.85
2018-06-11T01:07:50.554Z,1005.85
2018-06-11T01:08:50.574Z,1005.87
2018-06-11T01:09:50.602Z,1005.85
2018-06-11T01:10:50.621Z,1005.85
2018-06-11T01:11:50.648Z,1005.84
2018-06-11T01:12:50.677Z,1005.82
2018-06-11T01:13:50.696Z,1005.8
2018-06-11T01:14:50.722Z,1005.79
2018-06-11T01:15:50.752Z,1005.74
2018-06-11T01:16:50.775Z,1005.79
2018-06-11T01:17:50.799Z,1005.79
2018-06-11T01:18:50.820Z,1005.85
2018-06-11T01:19:50.848Z,1005.81
2018-06-11T01:21:50.896Z,1005.8
2018-06-11T01:22:50.918Z,1005.78
2018-06-11T01:23:50.947Z,1005.82
2018-06-11T01:24:51.021Z,1005.81
2018-06-11T01:25:50.991Z,1005.8
2018-06-11T01:26:51.014Z,1005.81
2018-06-11T01:27:51.040Z,1005.82
2018-06-11T01:28:51.069Z,1005.81
2018-06-11T01:29:51.093Z,1005.82
2018-06-11T01:30:51.118Z,1005.82
2018-06-11T01:31:51.138Z,1005.87
2018-06-11T01:32:51.166Z,1005.85
2018-06-11T01:33:51.186Z,1005.79
2018-06-11T01:34:51.216Z,1005.82
2018-06-11T01:35:51.236Z,1005.8
2018-06-11T01:37:51.285Z,1005.81
2018-06-11T01:38:51.314Z,1005.79
2018-06-11T01:39:51.333Z,1005.91
2018-06-11T01:40:51.362Z,1005.87
2018-06-11T01:41:51.383Z,1005.9
2018-06-11T01:42:51.438Z,1005.9
2018-06-11T01:43:51.431Z,1005.88
2018-06-11T01:44:51.460Z,1005.9
2018-06-11T01:45:51.480Z,1005.9
2018-06-11T01:46:51.509Z,1005.87
2018-06-11T01:47:51.533Z,1005.86
2018-06-11T01:48:51.558Z,1005.89
2018-06-11T01:49:51.583Z,1005.92
2018-06-11T01:50:51.607Z,1005.95
2018-06-11T01:52:51.657Z,1005.92
2018-06-11T01:53:51.676Z,1005.91
2018-06-11T01:54:51.700Z,1005.92
2018-06-11T01:55:51.730Z,1005.92
2018-06-11T01:56:51.749Z,1005.87
2018-06-11T01:57:51.778Z,1005.93
2018-06-11T01:58:51.799Z,1005.9
2018-06-11T01:59:51.827Z,1005.95
2018-06-11T02:00:51.847Z,1005.92
2018-06-11T02:01:51.870Z,1006
2018-06-11T02:02:51.900Z,1005.99
2018-06-11T02:03:51.921Z,1005.98
2018-06-11T02:04:51.943Z,1006.02
2018-06-11T02:05:51.972Z,1005.99
2018-06-11T02:06:51.994Z,1006.01
2018-06-11T02:07:52.022Z,1006.01
2018-06-11T02:08:52.046Z,1005.95
2018-06-11T02:09:52.070Z,1005.89
2018-06-11T02:10:52.090Z,1005.92
2018-06-11T02:11:52.115Z,1005.93
2018-06-11T02:12:52.144Z,1005.99
2018-06-11T02:13:52.163Z,1006.03
2018-06-11T02:14:52.192Z,1006.01
2018-06-11T02:15:52.211Z,1006.05
2018-06-11T02:16:52.241Z,1006.01
2018-06-11T02:17:52.261Z,1006.05
2018-06-11T02:18:52.285Z,1006.02
2018-06-11T02:19:52.313Z,1005.99
2018-06-11T02:20:52.333Z,1005.96
2018-06-11T02:21:52.370Z,1005.95
2018-06-11T02:22:52.382Z,1005.96
2018-06-11T02:24:52.431Z,1005.96
2018-06-11T02:25:52.455Z,1005.99
2018-06-11T02:26:52.484Z,1005.98
2018-06-11T02:27:52.509Z,1005.96
2018-06-11T02:28:52.532Z,1005.95
2018-06-11T02:29:52.557Z,1005.98
2018-06-11T02:30:52.581Z,1006.01
2018-06-11T02:31:52.601Z,1006.02
2018-06-11T02:32:52.630Z,1006.01
2018-06-11T02:33:52.648Z,1005.96
2018-06-11T02:34:52.678Z,1005.96
2018-06-11T02:35:52.698Z,1005.93
2018-06-11T02:36:52.725Z,1005.91
2018-06-11T02:37:52.748Z,1005.89
2018-06-11T02:38:52.775Z,1005.88
2018-06-11T02:40:52.820Z,1005.93
2018-06-11T02:41:52.848Z,1005.97
2018-06-11T02:42:52.866Z,1005.93
2018-06-11T02:43:52.892Z,1005.94
2018-06-11T02:44:52.920Z,1005.96
2018-06-11T02:45:52.940Z,1005.93
2018-06-11T02:46:52.973Z,1005.96
2018-06-11T02:47:52.988Z,1005.96
2018-06-11T02:48:53.019Z,1005.93
2018-06-11T02:49:53.036Z,1005.97
2018-06-11T02:50:53.061Z,1005.94
2018-06-11T02:51:53.091Z,1005.95
2018-06-11T02:52:53.114Z,1005.93
2018-06-11T02:53:53.138Z,1005.93
2018-06-11T02:54:53.159Z,1005.93
2018-06-11T02:56:53.206Z,1005.98
2018-06-11T02:57:53.231Z,1005.99
2018-06-11T02:58:53.259Z,1005.99
2018-06-11T02:59:53.284Z,1006
2018-06-11T03:00:53.302Z,1005.96
2018-06-11T03:01:53.333Z,1006.02
2018-06-11T03:02:53.350Z,1005.98
2018-06-11T03:03:53.383Z,1006.02
2018-06-11T03:04:53.405Z,1006
2018-06-11T03:05:53.425Z,1006.02
2018-06-11T03:06:53.449Z,1006.06
2018-06-11T03:07:53.472Z,1006.04
2018-06-11T03:08:53.501Z,1006.06
2018-06-11T03:09:53.521Z,1006.07
2018-06-11T03:10:53.550Z,1006.05
2018-06-11T03:12:53.598Z,1006.03
2018-06-11T03:13:53.618Z,1006.1
2018-06-11T03:14:53.644Z,1006.06
2018-06-11T03:15:53.671Z,1006.07
2018-06-11T03:16:53.695Z,1006.12
2018-06-11T03:17:53.718Z,1006.1
2018-06-11T03:18:53.739Z,1006.12
2018-06-11T03:19:53.768Z,1006.15
2018-06-11T03:20:53.788Z,1006.18
2018-06-11T03:21:53.810Z,1006.2
2018-06-11T03:22:53.840Z,1006.24
2018-06-11T03:23:53.865Z,1006.32
2018-06-11T03:24:53.889Z,1006.32
2018-06-11T03:25:53.910Z,1006.32
2018-06-11T03:27:53.957Z,1006.27
2018-06-11T03:28:53.986Z,1006.25
2018-06-11T03:29:54.008Z,1006.27
2018-06-11T03:30:54.032Z,1006.27
2018-06-11T03:31:54.056Z,1006.28
2018-06-11T03:32:54.084Z,1006.28
2018-06-11T03:33:54.105Z,1006.26
2018-06-11T03:34:54.133Z,1006.35
2018-06-11T03:35:54.152Z,1006.3
2018-06-11T03:36:54.181Z,1006.35
2018-06-11T03:37:54.201Z,1006.35
2018-06-11T03:38:54.230Z,1006.36
2018-06-11T03:39:54.249Z,1006.39
2018-06-11T03:40:54.278Z,1006.42
2018-06-11T03:41:54.302Z,1006.42
2018-06-11T03:42:54.322Z,1006.46
2018-06-11T03:43:54.350Z,1006.46
2018-06-11T03:44:54.370Z,1006.45
2018-06-11T03:45:54.401Z,1006.47
2018-06-11T03:46:54.419Z,1006.47
2018-06-11T03:47:54.448Z,1006.42
2018-06-11T03:48:54.469Z,1006.42
2018-06-11T03:49:54.497Z,1006.39
2018-06-11T03:50:54.516Z,1006.38
2018-06-11T03:51:54.541Z,1006.39
2018-06-11T03:52:54.570Z,1006.37
2018-06-11T03:53:54.589Z,1006.43
2018-06-11T03:54:54.617Z,1006.4
2018-06-11T03:55:54.641Z,1006.42
2018-06-11T03:56:54.663Z,1006.41
2018-06-11T03:57:54.691Z,1006.4
2018-06-11T03:59:54.736Z,1006.41
2018-06-11T04:00:54.765Z,1006.44
2018-06-11T04:01:54.784Z,1006.42
2018-06-11T04:02:54.812Z,1006.49
2018-06-11T04:03:54.831Z,1006.43
2018-06-11T04:04:54.861Z,1006.49
2018-06-11T04:05:54.881Z,1006.45
2018-06-11T04:06:54.909Z,1006.5
2018-06-11T04:07:54.930Z,1006.46
2018-06-11T04:08:54.954Z,1006.51
2018-06-11T04:09:54.984Z,1006.54
2018-06-11T04:10:55.084Z,1006.51
2018-06-11T04:11:55.033Z,1006.54
2018-06-11T04:12:55.052Z,1006.51
2018-06-11T04:13:55.081Z,1006.5
2018-06-11T04:15:55.126Z,1006.53
2018-06-11T04:16:55.155Z,1006.6
2018-06-11T04:17:55.180Z,1006.55
2018-06-11T04:18:55.205Z,1006.56
2018-06-11T04:19:55.222Z,1006.59
2018-06-11T04:20:55.252Z,1006.62
2018-06-11T04:21:55.274Z,1006.58
2018-06-11T04:22:55.302Z,1006.63
2018-06-11T04:23:55.326Z,1006.66
2018-06-11T04:24:55.347Z,1006.63
2018-06-11T04:25:55.370Z,1006.64
2018-06-11T04:26:55.401Z,1006.62
2018-06-11T04:27:55.420Z,1006.64
2018-06-11T04:28:55.450Z,1006.63
2018-06-11T04:29:55.470Z,1006.65
2018-06-11T04:31:55.517Z,1006.7
2018-06-11T04:32:55.544Z,1006.72
2018-06-11T04:33:55.573Z,1006.74
2018-06-11T04:34:55.592Z,1006.69
2018-06-11T04:35:55.621Z,1006.72
2018-06-11T04:36:55.642Z,1006.72
2018-06-11T04:37:55.674Z,1006.76
2018-06-11T04:38:55.690Z,1006.78
2018-06-11T04:39:55.719Z,1006.79
2018-06-11T04:40:55.738Z,1006.75
2018-06-11T04:41:55.784Z,1006.78
2018-06-11T04:42:55.793Z,1006.75
2018-06-11T04:43:55.813Z,1006.73
2018-06-11T04:44:55.849Z,1006.69
2018-06-11T04:45:55.862Z,1006.77
2018-06-11T04:47:55.915Z,1006.73
2018-06-11T04:48:55.937Z,1006.74
2018-06-11T04:49:55.960Z,1006.73
2018-06-11T04:50:55.993Z,1006.75
2018-06-11T04:51:56.010Z,1006.72
2018-06-11T04:52:56.037Z,1006.72
2018-06-11T04:53:56.063Z,1006.68
2018-06-11T04:54:56.083Z,1006.71
2018-06-11T04:55:56.108Z,1006.71
2018-06-11T04:56:56.131Z,1006.7
2018-06-11T04:57:56.164Z,1006.7
2018-06-11T04:58:56.181Z,1006.69
2018-06-11T04:59:56.210Z,1006.72
2018-06-11T05:00:56.235Z,1006.74
2018-06-11T05:02:56.285Z,1006.78
2018-06-11T05:03:56.305Z,1006.79
2018-06-11T05:04:56.333Z,1006.81
2018-06-11T05:05:56.361Z,1006.79
2018-06-11T05:06:56.382Z,1006.82
2018-06-11T05:07:56.406Z,1006.78
2018-06-11T05:08:56.431Z,1006.84
2018-06-11T05:09:56.451Z,1006.83
2018-06-11T05:10:56.474Z,1006.86
2018-06-11T05:11:56.505Z,1006.84
2018-06-11T05:12:56.525Z,1006.87
2018-06-11T05:13:56.554Z,1006.9
2018-06-11T05:14:56.576Z,1006.93
2018-06-11T05:15:56.614Z,1006.88
2018-06-11T05:16:56.622Z,1006.92
2018-06-11T05:17:56.652Z,1006.87
2018-06-11T05:18:56.671Z,1006.94
2018-06-11T05:19:56.702Z,1006.94
2018-06-11T05:20:56.721Z,1006.9
2018-06-11T05:21:56.749Z,1006.95
2018-06-11T05:22:56.772Z,1006.98
2018-06-11T05:23:56.800Z,1006.99
2018-06-11T05:24:56.823Z,1006.93
2018-06-11T05:25:56.847Z,1006.97
2018-06-11T05:26:56.868Z,1006.97
2018-06-11T05:27:56.893Z,1006.94
2018-06-11T05:28:56.922Z,1006.95
2018-06-11T05:29:56.942Z,1007
2018-06-11T05:30:56.972Z,1007
2018-06-11T05:31:56.992Z,1007
2018-06-11T05:32:57.016Z,1007.06
2018-06-11T05:34:57.140Z,1007.08
2018-06-11T05:35:57.091Z,1007.11
2018-06-11T05:36:57.119Z,1007.12
2018-06-11T05:37:57.151Z,1007.09
2018-06-11T05:38:57.170Z,1007.07
2018-06-11T05:39:57.191Z,1007.06
2018-06-11T05:40:57.220Z,1007.1
2018-06-11T05:41:57.245Z,1007.37
2018-06-11T05:42:57.272Z,1007.1
2018-06-11T05:43:57.291Z,1007.11
2018-06-11T05:44:57.321Z,1007.12
2018-06-11T05:45:57.345Z,1007.1
2018-06-11T05:46:57.368Z,1007.13
2018-06-11T05:47:57.399Z,1007.11
2018-06-11T05:48:57.422Z,1007.15
2018-06-11T05:50:57.473Z,1007.11
2018-06-11T05:51:57.493Z,1007.09
2018-06-11T05:52:57.523Z,1007.08
2018-06-11T05:53:57.545Z,1007.12
2018-06-11T05:54:57.569Z,1007.13
2018-06-11T05:55:57.605Z,1007.16
2018-06-11T05:56:57.620Z,1007.11
2018-06-11T05:57:57.650Z,1007.11
2018-06-11T05:58:57.675Z,1007.13
2018-06-11T05:59:57.696Z,1007.12
2018-06-11T06:00:57.730Z,1007.14
2018-06-11T06:01:57.747Z,1007.15
2018-06-11T06:02:57.775Z,1007.16
2018-06-11T06:03:57.797Z,1007.2
2018-06-11T06:04:57.826Z,1007.17
2018-06-11T06:06:57.873Z,1007.19
2018-06-11T06:07:57.906Z,1007.19
2018-06-11T06:08:57.923Z,1007.15
2018-06-11T06:09:57.957Z,1007.17
2018-06-11T06:10:57.972Z,1007.16
2018-06-11T06:11:58.003Z,1007.18
2018-06-11T06:12:58.023Z,1007.21
2018-06-11T06:13:58.051Z,1007.19
2018-06-11T06:14:58.078Z,1007.13
2018-06-11T06:15:58.104Z,1007.15
2018-06-11T06:16:58.125Z,1007.15
2018-06-11T06:17:58.153Z,1007.18
2018-06-11T06:18:58.175Z,1007.2
2018-06-11T06:19:58.204Z,1007.22
2018-06-11T06:20:58.225Z,1007.23
2018-06-11T06:22:58.282Z,1007.22
2018-06-11T06:23:58.302Z,1007.25
2018-06-11T06:24:58.326Z,1007.29
2018-06-11T06:25:58.352Z,1007.28
2018-06-11T06:26:58.381Z,1007.25
2018-06-11T06:27:58.401Z,1007.23
2018-06-11T06:28:58.431Z,1007.26
2018-06-11T06:29:58.456Z,1007.26
2018-06-11T06:30:58.482Z,1007.28
2018-06-11T06:31:58.501Z,1007.26
2018-06-11T06:32:58.533Z,1007.25
2018-06-11T06:33:58.557Z,1007.26
2018-06-11T06:34:58.578Z,1007.27
2018-06-11T06:35:58.608Z,1007.23
2018-06-11T06:37:58.663Z,1007.29
2018-06-11T06:38:58.679Z,1007.29
2018-06-11T06:39:58.709Z,1007.25
2018-06-11T06:40:58.734Z,1007.25
2018-06-11T06:41:58.755Z,1007.23
2018-06-11T06:42:58.781Z,1007.26
2018-06-11T06:43:58.810Z,1007.27
2018-06-11T06:44:58.836Z,1007.23
2018-06-11T06:45:58.860Z,1007.26
2018-06-11T06:46:58.883Z,1007.27
2018-06-11T06:47:58.915Z,1007.3
2018-06-11T06:48:58.934Z,1007.41
2018-06-11T06:49:58.962Z,1007.59
2018-06-11T06:50:59.083Z,1007.47
2018-06-11T06:51:59.013Z,1007.63
2018-06-11T06:52:59.035Z,1007.38
2018-06-11T06:53:59.066Z,1007.28
2018-06-11T06:54:59.088Z,1007.3
2018-06-11T06:55:59.113Z,1007.27
2018-06-11T06:56:59.139Z,1007.25
2018-06-11T06:57:59.171Z,1007.2
2018-06-11T06:58:59.198Z,1007.27
2018-06-11T06:59:59.220Z,1007.56
2018-06-11T07:00:59.245Z,1007.43
2018-06-11T07:01:59.277Z,1007.31
2018-06-11T07:02:59.302Z,1007.3
2018-06-11T07:03:59.324Z,1007.27
2018-06-11T07:04:59.356Z,1007.28
2018-06-11T07:05:59.380Z,1007.28
2018-06-11T07:06:59.405Z,1007.3
2018-06-11T07:07:59.444Z,1007.29
2018-06-11T07:09:59.485Z,1007.25
2018-06-11T07:10:59.516Z,1007.27
2018-06-11T07:11:59.537Z,1007.26
2018-06-11T07:12:59.565Z,1007.26
2018-06-11T07:13:59.592Z,1007.28
2018-06-11T07:14:59.623Z,1007.33
2018-06-11T07:15:59.649Z,1007.32
2018-06-11T07:16:59.673Z,1007.35
2018-06-11T07:17:59.701Z,1007.66
2018-06-11T07:18:59.729Z,1007.96
2018-06-11T07:19:59.752Z,1007.38
2018-06-11T07:20:59.787Z,1007.46
2018-06-11T07:21:59.811Z,1007.29
2018-06-11T07:22:59.838Z,1007.29
2018-06-11T07:23:59.860Z,1007.24
2018-06-11T07:25:59.920Z,1007.24
2018-06-11T07:26:59.944Z,1007.21
2018-06-11T07:27:59.975Z,1007.22
2018-06-11T07:28:59.999Z,1007.21
2018-06-11T07:30:00.030Z,1007.21
2018-06-11T07:31:00.055Z,1007.19
2018-06-11T07:32:00.085Z,1007.19
2018-06-11T07:33:00.108Z,1007.16
2018-06-11T07:34:00.139Z,1007.2
2018-06-11T07:35:00.211Z,1007.21
2018-06-11T07:36:00.194Z,1007.16
2018-06-11T07:37:00.218Z,1007.24
2018-06-11T07:38:00.253Z,1007.26
2018-06-11T07:39:00.273Z,1007.3
2018-06-11T07:40:00.304Z,1007.23
2018-06-11T07:42:00.357Z,1007.21
2018-06-11T07:43:00.384Z,1007.21
2018-06-11T07:44:00.407Z,1007.22
2018-06-11T07:45:00.437Z,1007.23
2018-06-11T07:46:00.461Z,1007.22
2018-06-11T07:47:00.592Z,1007.22
2018-06-11T07:48:00.520Z,1007.19
2018-06-11T07:49:00.549Z,1007.21
2018-06-11T07:50:00.574Z,1007.2
2018-06-11T07:51:00.601Z,1007.21
2018-06-11T07:52:00.624Z,1007.17
2018-06-11T07:53:00.651Z,1007.19
2018-06-11T07:54:00.683Z,1007.18
2018-06-11T07:55:00.810Z,1007.23
2018-06-11T07:56:00.737Z,1007.23
2018-06-11T07:58:00.792Z,1007.26
2018-06-11T07:59:00.815Z,1007.23
2018-06-11T08:00:00.875Z,1007.26
2018-06-11T08:01:00.874Z,1007.21
2018-06-11T08:02:00.898Z,1007.26
2018-06-11T08:03:00.924Z,1007.25
2018-06-11T08:04:00.950Z,1007.44
2018-06-11T08:05:00.983Z,1007.27
2018-06-11T08:06:01.010Z,1007.95
2018-06-11T08:07:01.084Z,1007.38
2018-06-11T08:08:01.065Z,1007.45
2018-06-11T08:09:01.092Z,1008.01
2018-06-11T08:10:01.127Z,1007.3
2018-06-11T08:11:01.146Z,1007.29
2018-06-11T08:13:01.208Z,1007.29
2018-06-11T08:14:01.232Z,1007.32
2018-06-11T08:15:01.265Z,1007.4
2018-06-11T08:16:01.289Z,1007.35
2018-06-11T08:17:01.320Z,1007.33
2018-06-11T08:18:01.351Z,1007.34
2018-06-11T08:19:01.377Z,1007.36
2018-06-11T08:20:01.406Z,1007.32
2018-06-11T08:21:01.434Z,1007.32
2018-06-11T08:22:01.459Z,1007.35
2018-06-11T08:23:01.486Z,1007.35
2018-06-11T08:24:01.519Z,1007.31
2018-06-11T08:25:01.545Z,1007.3
2018-06-11T08:26:01.571Z,1007.34
2018-06-11T08:27:01.604Z,1007.35
2018-06-11T08:28:01.629Z,1007.38
2018-06-11T08:29:01.658Z,1007.4
2018-06-11T08:30:01.689Z,1007.94
2018-06-11T08:31:01.713Z,1007.52
2018-06-11T08:32:01.739Z,1007.46
2018-06-11T08:33:01.767Z,1007.64
2018-06-11T08:34:01.799Z,1007.84
2018-06-11T08:35:01.825Z,1007.77
2018-06-11T08:36:01.860Z,1007.44
2018-06-11T08:37:01.887Z,1007.52
2018-06-11T08:38:01.913Z,1007.35
2018-06-11T08:39:01.939Z,1007.37
2018-06-11T08:40:01.967Z,1007.38
2018-06-11T08:41:02.000Z,1007.38
2018-06-11T08:42:02.030Z,1007.31
2018-06-11T08:43:02.057Z,1007.27
2018-06-11T08:45:02.116Z,1007.37
2018-06-11T08:46:02.143Z,1007.8
2018-06-11T08:47:02.170Z,1007.74
2018-06-11T08:48:02.202Z,1007.35
2018-06-11T08:49:02.227Z,1007.38
2018-06-11T08:50:02.270Z,1007.34
2018-06-11T08:51:02.284Z,1007.37
2018-06-11T08:52:02.318Z,1007.37
2018-06-11T08:53:02.346Z,1007.38
2018-06-11T08:54:02.371Z,1007.44
2018-06-11T08:55:02.407Z,1007.36
2018-06-11T08:56:02.429Z,1007.34
2018-06-11T08:57:02.459Z,1007.36
2018-06-11T08:58:02.487Z,1007.37
2018-06-11T08:59:02.520Z,1007.45
2018-06-11T09:01:02.586Z,1007.62
2018-06-11T09:02:02.610Z,1007.59
2018-06-11T09:03:02.630Z,1007.58
2018-06-11T09:04:02.660Z,1007.53
2018-06-11T09:05:02.689Z,1007.53
2018-06-11T09:06:02.721Z,1007.52
2018-06-11T09:07:02.759Z,1007.54
2018-06-11T09:08:02.781Z,1007.56
2018-06-11T09:09:02.810Z,1007.56
2018-06-11T09:10:02.840Z,1007.57
2018-06-11T09:11:02.866Z,1007.62
2018-06-11T09:12:02.915Z,1007.57
2018-06-11T09:13:02.926Z,1007.53
2018-06-11T09:14:02.963Z,1007.55
2018-06-11T09:15:02.989Z,1007.5
2018-06-11T09:17:03.055Z,1007.45
2018-06-11T09:18:03.128Z,1007.58
2018-06-11T09:19:03.110Z,1007.54
2018-06-11T09:20:03.143Z,1007.54
2018-06-11T09:21:03.175Z,1007.6
2018-06-11T09:22:03.199Z,1007.64
2018-06-11T09:23:03.237Z,1007.65
2018-06-11T09:24:03.264Z,1007.7
2018-06-11T09:25:03.320Z,1007.68
2018-06-11T09:26:03.326Z,1007.7
2018-06-11T09:27:03.350Z,1007.73
2018-06-11T09:28:03.382Z,1007.76
2018-06-11T09:29:03.408Z,1007.72
2018-06-11T09:30:03.438Z,1007.68
2018-06-11T09:31:03.469Z,1007.72
2018-06-11T09:33:03.534Z,1007.76
2018-06-11T09:34:03.557Z,1007.7
2018-06-11T09:35:03.589Z,1007.74
2018-06-11T09:36:03.621Z,1007.76
2018-06-11T09:37:03.650Z,1007.72
2018-06-11T09:38:03.674Z,1007.67
2018-06-11T09:39:03.708Z,1007.73
2018-06-11T09:40:03.743Z,1007.73
2018-06-11T09:41:03.765Z,1007.75
2018-06-11T09:42:03.799Z,1007.76
2018-06-11T09:43:03.825Z,1007.82
2018-06-11T09:44:04.035Z,1007.75
2018-06-11T09:45:03.887Z,1007.79
2018-06-11T09:46:03.923Z,1007.81
2018-06-11T09:48:03.984Z,1007.83
2018-06-11T09:49:04.014Z,1007.83
2018-06-11T09:50:04.048Z,1007.86
2018-06-11T09:51:04.074Z,1007.85
2018-06-11T09:52:04.114Z,1007.8
2018-06-11T09:53:04.140Z,1007.76
2018-06-11T09:54:04.165Z,1007.84
2018-06-11T09:55:04.198Z,1007.84
2018-06-11T09:56:04.232Z,1007.81
2018-06-11T09:57:04.265Z,1007.82
2018-06-11T09:58:04.291Z,1007.85
2018-06-11T09:59:04.326Z,1007.81
2018-06-11T10:00:04.357Z,1007.85
2018-06-11T10:01:04.388Z,1007.84
2018-06-11T10:02:04.416Z,1007.84
2018-06-11T10:03:04.452Z,1007.87
2018-06-11T10:04:04.484Z,1007.84
2018-06-11T10:05:04.511Z,1007.89
2018-06-11T10:06:04.550Z,1007.9
2018-06-11T10:07:04.572Z,1007.9
2018-06-11T10:08:04.611Z,1007.84
2018-06-11T10:09:04.668Z,1007.87
2018-06-11T10:10:04.677Z,1007.9
2018-06-11T10:11:04.698Z,1007.87
2018-06-11T10:12:04.735Z,1007.84
2018-06-11T10:13:04.761Z,1007.86
2018-06-11T10:14:04.799Z,1007.87
2018-06-11T10:15:04.827Z,1007.84
2018-06-11T10:16:04.855Z,1007.86
2018-06-11T10:17:04.886Z,1007.82
2018-06-11T10:18:04.922Z,1007.77
2018-06-11T10:20:04.985Z,1007.78
2018-06-11T10:21:05.023Z,1007.73
2018-06-11T10:22:05.046Z,1007.77
2018-06-11T10:23:05.074Z,1007.76
2018-06-11T10:24:05.106Z,1007.75
2018-06-11T10:25:05.141Z,1007.71
2018-06-11T10:26:05.169Z,1007.69
2018-06-11T10:27:05.203Z,1007.79
2018-06-11T10:28:05.230Z,1007.76
2018-06-11T10:29:05.264Z,1007.81
2018-06-11T10:30:05.292Z,1007.78
2018-06-11T10:31:05.321Z,1007.78
2018-06-11T10:32:05.358Z,1007.77
2018-06-11T10:33:05.388Z,1007.76
2018-06-11T10:34:05.419Z,1007.75
2018-06-11T10:36:05.481Z,1007.8
2018-06-11T10:37:05.507Z,1007.72
2018-06-11T10:38:05.538Z,1007.71
2018-06-11T10:39:05.617Z,1007.79
2018-06-11T10:40:05.603Z,1007.81
2018-06-11T10:41:05.630Z,1007.77
2018-06-11T10:42:05.665Z,1007.71
2018-06-11T10:43:05.691Z,1007.74
2018-06-11T10:44:05.726Z,1007.74
2018-06-11T10:45:05.753Z,1007.73
2018-06-11T10:46:05.786Z,1007.73
2018-06-11T10:47:05.812Z,1007.72
2018-06-11T10:48:05.847Z,1007.76
2018-06-11T10:49:05.876Z,1007.72
2018-06-11T10:50:05.908Z,1007.69
2018-06-11T10:52:05.964Z,1007.68
2018-06-11T10:53:05.993Z,1007.68
2018-06-11T10:54:06.025Z,1007.67
2018-06-11T10:55:06.058Z,1007.68
2018-06-11T10:56:06.085Z,1007.68
2018-06-11T10:57:06.119Z,1007.64
2018-06-11T10:58:06.222Z,1007.67
2018-06-11T10:59:06.178Z,1007.65
2018-06-11T11:00:06.204Z,1007.67
2018-06-11T11:01:06.240Z,1007.7
2018-06-11T11:02:06.268Z,1007.65
2018-06-11T11:03:06.298Z,1007.59
2018-06-11T11:04:06.328Z,1007.58
2018-06-11T11:05:06.354Z,1007.6
2018-06-11T11:06:06.387Z,1007.58
2018-06-11T11:08:06.444Z,1007.63
2018-06-11T11:09:06.478Z,1007.61
2018-06-11T11:10:06.502Z,1007.59
2018-06-11T11:11:06.532Z,1007.55
2018-06-11T11:12:06.561Z,1007.57
2018-06-11T11:13:06.649Z,1007.5
2018-06-11T11:14:06.623Z,1007.51
2018-06-11T11:15:06.651Z,1007.55
2018-06-11T11:16:06.684Z,1007.52
2018-06-11T11:17:06.709Z,1007.48
2018-06-11T11:18:06.741Z,1007.49
2018-06-11T11:19:06.767Z,1007.47
2018-06-11T11:20:06.800Z,1007.42
2018-06-11T11:21:06.826Z,1007.41
2018-06-11T11:23:06.884Z,1007.4
2018-06-11T11:24:06.913Z,1007.42
2018-06-11T11:25:06.947Z,1007.37
2018-06-11T11:26:06.971Z,1007.42
2018-06-11T11:27:07.006Z,1007.41
2018-06-11T11:28:07.030Z,1007.45
2018-06-11T11:29:07.065Z,1007.39
2018-06-11T11:30:07.090Z,1007.45
2018-06-11T11:31:07.119Z,1007.38
2018-06-11T11:32:07.150Z,1007.39
2018-06-11T11:33:07.180Z,1007.41
2018-06-11T11:34:07.205Z,1007.41
2018-06-11T11:35:07.239Z,1007.41
2018-06-11T11:36:07.263Z,1007.42
2018-06-11T11:37:07.296Z,1007.34
2018-06-11T11:38:07.326Z,1007.34
2018-06-11T11:39:07.354Z,1007.36
2018-06-11T11:40:07.382Z,1007.35
2018-06-11T11:41:07.409Z,1007.34
2018-06-11T11:42:07.441Z,1007.3
2018-06-11T11:43:07.467Z,1007.3
2018-06-11T11:44:07.500Z,1007.26
2018-06-11T11:45:07.526Z,1007.22
2018-06-11T11:46:07.558Z,1007.26
2018-06-11T11:47:07.581Z,1007.29
2018-06-11T11:48:07.616Z,1007.23
2018-06-11T11:49:07.641Z,1007.25
2018-06-11T11:50:07.674Z,1007.24
2018-06-11T11:51:07.711Z,1007.27
2018-06-11T11:52:07.728Z,1007.19
2018-06-11T11:53:07.755Z,1007.18
2018-06-11T11:55:07.819Z,1007.2
2018-06-11T11:56:07.843Z,1007.24
2018-06-11T11:57:07.876Z,1007.23
2018-06-11T11:58:07.906Z,1007.17
2018-06-11T11:59:07.935Z,1007.18
2018-06-11T12:00:07.959Z,1007.17
2018-06-11T12:01:07.992Z,1007.18
2018-06-11T12:02:08.017Z,1007.09
2018-06-11T12:03:08.049Z,1007.14
2018-06-11T12:04:08.073Z,1007.13
2018-06-11T12:05:08.102Z,1007.19
2018-06-11T12:06:08.136Z,1007.2
2018-06-11T12:07:08.164Z,1007.19
2018-06-11T12:08:08.192Z,1007.14
2018-06-11T12:09:08.215Z,1007.13
2018-06-11T12:11:08.274Z,1007.11
2018-06-11T12:12:08.303Z,1007.02
2018-06-11T12:13:08.331Z,1007.1
2018-06-11T12:14:08.364Z,1007.08
2018-06-11T12:15:08.392Z,1007.12
2018-06-11T12:16:08.416Z,1007.13
2018-06-11T12:17:08.450Z,1007.19
2018-06-11T12:18:08.474Z,1007.15
2018-06-11T12:19:08.558Z,1007.17
2018-06-11T12:20:08.531Z,1007.26
2018-06-11T12:21:08.564Z,1007.13
2018-06-11T12:22:08.593Z,1007.09
2018-06-11T12:23:08.620Z,1007.12
2018-06-11T12:24:08.645Z,1007.06
2018-06-11T12:25:08.721Z,1007.07
2018-06-11T12:27:08.730Z,1007.04
2018-06-11T12:28:08.758Z,1007
2018-06-11T12:29:08.798Z,1007.01
2018-06-11T12:30:08.815Z,1007.07
2018-06-11T12:31:08.848Z,1006.99
2018-06-11T12:32:08.877Z,1006.94
2018-06-11T12:33:08.902Z,1006.84
2018-06-11T12:34:08.929Z,1006.81
2018-06-11T12:35:08.959Z,1006.79
2018-06-11T12:36:08.991Z,1006.86
2018-06-11T12:37:09.015Z,1006.82
2018-06-11T12:38:09.047Z,1006.83
2018-06-11T12:39:09.072Z,1006.75
2018-06-11T12:40:09.104Z,1006.7
2018-06-11T12:41:09.130Z,1006.66
2018-06-11T12:43:09.185Z,1006.51
2018-06-11T12:44:09.213Z,1006.48
2018-06-11T12:45:09.241Z,1006.44
2018-06-11T12:46:09.274Z,1006.46
2018-06-11T12:47:09.297Z,1006.46
2018-06-11T12:48:09.330Z,1006.5
2018-06-11T12:49:09.358Z,1006.51
2018-06-11T12:50:09.382Z,1006.46